createdAt,value
2023-04-09T00:01:29.914Z,10.30
2023-04-09T00:03:59.088Z,10.30
2023-04-09T00:06:27.185Z,10.30
2023-04-09T00:08:54.970Z,10.20
2023-04-09T00:11:22.765Z,10.30
2023-04-09T00:13:50.715Z,10.30
2023-04-09T00:16:18.518Z,10.40
2023-04-09T00:18:46.451Z,10.40
2023-04-09T00:21:16.162Z,10.40
2023-04-09T00:23:43.927Z,10.40
2023-04-09T00:26:11.628Z,10.30
2023-04-09T00:28:39.373Z,10.30
2023-04-09T00:31:07.085Z,10.30
2023-04-09T00:33:34.785Z,10.40
2023-04-09T00:36:02.933Z,10.40
2023-04-09T00:38:31.993Z,10.30
2023-04-09T00:40:59.734Z,10.30
2023-04-09T00:43:27.936Z,10.30
2023-04-09T00:45:55.941Z,10.20
2023-04-09T00:48:23.866Z,10.20
2023-04-09T00:50:51.632Z,10.30
2023-04-09T00:53:19.900Z,10.30
2023-04-09T00:55:48.946Z,10.30
2023-04-09T00:58:20.532Z,10.30
2023-04-09T01:00:48.380Z,10.40
2023-04-09T01:03:16.325Z,10.40
2023-04-09T01:05:52.239Z,10.30
2023-04-09T01:08:30.900Z,10.20
2023-04-09T01:11:09.004Z,10.10
2023-04-09T01:13:43.382Z,10.00
2023-04-09T01:16:13.356Z,10.00
2023-04-09T01:18:45.579Z,9.80
2023-04-09T01:21:15.350Z,9.60
2023-04-09T01:23:55.686Z,9.40
2023-04-09T01:26:42.409Z,9.40
2023-04-09T01:29:12.214Z,9.50
2023-04-09T01:31:43.465Z,9.40
2023-04-09T01:34:12.487Z,9.40
2023-04-09T01:36:41.408Z,9.40
2023-04-09T01:39:09.645Z,9.40
2023-04-09T01:41:38.947Z,9.40
2023-04-09T01:44:08.694Z,9.50
2023-04-09T01:46:40.370Z,9.50
2023-04-09T01:49:10.352Z,9.50
2023-04-09T01:51:38.616Z,9.70
2023-04-09T01:54:06.628Z,9.70
2023-04-09T01:56:44.044Z,9.50
2023-04-09T01:59:11.858Z,9.40
2023-04-09T02:01:47.850Z,9.20
2023-04-09T02:04:24.816Z,9.30
2023-04-09T02:06:59.566Z,9.10
2023-04-09T02:09:31.971Z,9.00
2023-04-09T02:12:06.737Z,9.20
2023-04-09T02:14:35.075Z,9.20
2023-04-09T02:17:04.431Z,9.40
2023-04-09T02:19:50.775Z,9.40
2023-04-09T02:22:18.914Z,9.40
2023-04-09T02:24:48.569Z,9.40
2023-04-09T02:27:24.576Z,9.30
2023-04-09T02:29:52.403Z,9.20
2023-04-09T02:32:21.469Z,9.30
2023-04-09T02:34:49.388Z,9.30
2023-04-09T02:37:21.093Z,9.30
2023-04-09T02:39:48.799Z,9.30
2023-04-09T02:42:16.542Z,9.30
2023-04-09T02:44:44.553Z,9.20
2023-04-09T02:47:12.251Z,9.10
2023-04-09T02:49:41.274Z,9.20
2023-04-09T02:52:10.936Z,9.30
2023-04-09T02:54:38.627Z,9.20
2023-04-09T02:57:06.361Z,9.40
2023-04-09T02:59:35.714Z,9.40
2023-04-09T03:02:03.563Z,9.50
2023-04-09T03:04:31.359Z,9.50
2023-04-09T03:07:00.423Z,9.40
2023-04-09T03:09:28.938Z,9.40
2023-04-09T03:11:57.324Z,9.40
2023-04-09T03:14:25.128Z,9.40
2023-04-09T03:16:52.848Z,9.40
2023-04-09T03:19:20.534Z,9.40
2023-04-09T03:21:49.231Z,9.40
2023-04-09T03:24:18.586Z,9.50
2023-04-09T03:26:46.352Z,9.40
2023-04-09T03:29:14.043Z,9.50
2023-04-09T03:31:41.839Z,9.50
2023-04-09T03:34:09.706Z,9.50
2023-04-09T03:36:38.494Z,9.50
2023-04-09T03:39:06.244Z,9.50
2023-04-09T03:41:35.364Z,9.60
2023-04-09T03:44:03.141Z,9.50
2023-04-09T03:46:30.941Z,9.50
2023-04-09T03:48:58.718Z,9.40
2023-04-09T03:51:27.161Z,9.40
2023-04-09T03:53:54.953Z,9.40
2023-04-09T03:56:23.073Z,9.40
2023-04-09T03:58:52.370Z,9.40
2023-04-09T04:01:20.337Z,9.40
2023-04-09T04:03:48.304Z,9.40
2023-04-09T04:06:16.100Z,9.40
2023-04-09T04:08:44.676Z,9.40
2023-04-09T04:11:12.394Z,9.50
2023-04-09T04:13:40.186Z,9.50
2023-04-09T04:16:10.977Z,9.50
2023-04-09T04:18:39.004Z,9.60
2023-04-09T04:21:06.978Z,9.60
2023-04-09T04:23:35.727Z,9.60
2023-04-09T04:26:03.477Z,9.60
2023-04-09T04:28:31.210Z,9.60
2023-04-09T04:30:58.918Z,9.60
2023-04-09T04:33:27.965Z,9.60
2023-04-09T04:36:04.583Z,9.60
2023-04-09T04:38:32.287Z,9.70
2023-04-09T04:41:00.012Z,9.60
2023-04-09T04:43:27.767Z,9.60
2023-04-09T04:45:55.793Z,9.60
2023-04-09T04:48:23.664Z,9.70
2023-04-09T04:50:58.037Z,9.60
2023-04-09T04:53:25.856Z,9.60
2023-04-09T04:55:53.937Z,9.60
2023-04-09T04:58:21.726Z,9.70
2023-04-09T05:00:49.526Z,9.70
2023-04-09T05:03:17.357Z,9.60
2023-04-09T05:05:45.985Z,9.60
2023-04-09T05:08:15.196Z,9.60
2023-04-09T05:10:43.848Z,9.70
2023-04-09T05:13:11.683Z,9.70
2023-04-09T05:15:40.473Z,9.60
2023-04-09T05:18:08.610Z,9.60
2023-04-09T05:20:36.619Z,9.50
2023-04-09T05:23:04.415Z,9.60
2023-04-09T05:25:33.466Z,9.60
2023-04-09T05:28:01.218Z,9.70
2023-04-09T05:30:28.948Z,9.60
2023-04-09T05:32:56.692Z,9.60
2023-04-09T05:35:24.442Z,9.70
2023-04-09T05:37:52.151Z,9.70
2023-04-09T05:40:19.901Z,9.70
2023-04-09T05:42:48.968Z,9.70
2023-04-09T05:45:16.727Z,9.70
2023-04-09T05:47:44.533Z,9.50
2023-04-09T05:50:12.508Z,9.50
2023-04-09T05:52:40.256Z,9.50
2023-04-09T05:55:09.785Z,9.60
2023-04-09T05:57:37.499Z,9.60
2023-04-09T06:00:08.120Z,9.70
2023-04-09T06:02:36.025Z,9.60
2023-04-09T06:05:03.858Z,9.60
2023-04-09T06:07:31.886Z,9.70
2023-04-09T06:09:59.568Z,9.70
2023-04-09T06:12:27.260Z,9.70
2023-04-09T06:14:55.014Z,9.60
2023-04-09T06:17:24.188Z,9.70
2023-04-09T06:19:51.932Z,9.70
2023-04-09T06:22:19.627Z,9.70
2023-04-09T06:24:47.353Z,9.70
2023-04-09T06:27:15.581Z,9.80
2023-04-09T06:29:43.268Z,9.80
2023-04-09T06:32:11.065Z,9.90
2023-04-09T06:34:40.178Z,9.90
2023-04-09T06:37:07.922Z,9.90
2023-04-09T06:39:35.922Z,9.90
2023-04-09T06:42:04.728Z,9.90
2023-04-09T06:44:32.465Z,9.80
2023-04-09T06:47:00.292Z,9.80
2023-04-09T06:49:28.055Z,9.80
2023-04-09T06:51:57.064Z,9.90
2023-04-09T06:54:25.023Z,9.90
2023-04-09T06:56:52.774Z,10.00
2023-04-09T06:59:20.498Z,10.10
2023-04-09T07:01:48.314Z,10.10
2023-04-09T07:04:16.329Z,10.10
2023-04-09T07:06:44.332Z,10.00
2023-04-09T07:09:13.487Z,10.00
2023-04-09T07:11:41.211Z,10.00
2023-04-09T07:14:08.943Z,10.10
2023-04-09T07:16:36.716Z,10.10
2023-04-09T07:19:06.426Z,10.10
2023-04-09T07:21:34.209Z,10.20
2023-04-09T07:24:01.959Z,10.20
2023-04-09T07:26:31.053Z,10.30
2023-04-09T07:28:59.358Z,10.50
2023-04-09T07:31:27.086Z,10.40
2023-04-09T07:33:55.137Z,10.40
2023-04-09T07:36:23.101Z,10.50
2023-04-09T07:38:51.239Z,10.50
2023-04-09T07:41:19.110Z,10.50
2023-04-09T07:43:48.166Z,10.50
2023-04-09T07:46:20.216Z,10.70
2023-04-09T07:48:49.434Z,10.60
2023-04-09T07:51:17.483Z,10.70
2023-04-09T07:53:48.222Z,10.60
2023-04-09T07:56:16.687Z,10.50
2023-04-09T07:58:44.761Z,10.70
2023-04-09T08:01:13.820Z,10.70
2023-04-09T08:03:41.753Z,10.70
2023-04-09T08:06:09.585Z,10.60
2023-04-09T08:08:37.484Z,10.50
2023-04-09T08:11:06.742Z,10.50
2023-04-09T08:13:34.452Z,10.60
2023-04-09T08:16:03.651Z,10.80
2023-04-09T08:18:32.786Z,10.80
2023-04-09T08:21:04.997Z,10.80
2023-04-09T08:23:32.761Z,10.70
2023-04-09T08:26:00.458Z,10.70
2023-04-09T08:28:28.199Z,10.80
2023-04-09T08:30:55.882Z,10.90
2023-04-09T08:33:23.605Z,11.00
2023-04-09T08:35:53.286Z,10.90
2023-04-09T08:38:21.776Z,11.10
2023-04-09T08:40:49.557Z,11.20
2023-04-09T08:43:18.127Z,11.20
2023-04-09T08:45:46.650Z,11.20
2023-04-09T08:48:15.995Z,11.50
2023-04-09T08:50:46.095Z,11.50
2023-04-09T08:53:16.596Z,11.50
2023-04-09T08:55:46.677Z,11.50
2023-04-09T08:58:14.437Z,11.70
2023-04-09T09:00:42.339Z,11.80
2023-04-09T09:03:13.005Z,11.80
2023-04-09T09:05:42.168Z,11.90
2023-04-09T09:08:10.695Z,11.70
2023-04-09T09:10:41.580Z,11.90
2023-04-09T09:13:18.586Z,12.00
2023-04-09T09:15:47.720Z,12.10
2023-04-09T09:18:15.527Z,12.40
2023-04-09T09:20:43.275Z,12.40
2023-04-09T09:23:11.088Z,12.50
2023-04-09T09:25:43.383Z,12.90
2023-04-09T09:28:12.286Z,13.00
2023-04-09T09:30:41.590Z,13.40
2023-04-09T09:33:10.642Z,13.60
2023-04-09T09:35:49.973Z,13.50
2023-04-09T09:38:18.245Z,13.70
2023-04-09T09:40:48.353Z,13.70
2023-04-09T09:43:16.158Z,14.00
2023-04-09T09:45:45.067Z,14.30
2023-04-09T09:48:14.061Z,14.40
2023-04-09T09:50:43.086Z,14.40
2023-04-09T09:53:12.189Z,14.20
2023-04-09T09:55:41.695Z,14.10
2023-04-09T09:58:17.917Z,14.10
2023-04-09T10:00:48.849Z,14.10
2023-04-09T10:03:22.329Z,13.80
2023-04-09T10:05:50.858Z,13.80
2023-04-09T10:08:18.986Z,13.90
2023-04-09T10:10:48.411Z,13.80
2023-04-09T10:13:25.553Z,14.00
2023-04-09T10:15:53.904Z,14.20
2023-04-09T10:18:22.395Z,14.30
2023-04-09T10:20:56.079Z,14.40
2023-04-09T10:23:33.902Z,14.60
2023-04-09T10:26:03.026Z,14.90
2023-04-09T10:28:32.809Z,15.10
2023-04-09T10:31:01.250Z,15.10
2023-04-09T10:33:29.481Z,15.20
2023-04-09T10:36:01.900Z,15.40
2023-04-09T10:38:37.381Z,15.40
2023-04-09T10:41:13.822Z,15.40
2023-04-09T10:43:43.112Z,15.70
2023-04-09T10:46:26.755Z,15.90
2023-04-09T10:49:13.513Z,16.00
2023-04-09T10:51:41.872Z,16.00
2023-04-09T10:54:43.557Z,16.10
2023-04-09T10:57:13.593Z,16.40
2023-04-09T10:59:44.796Z,16.40
2023-04-09T11:02:38.431Z,16.50
2023-04-09T11:05:19.555Z,16.60
2023-04-09T11:07:52.766Z,16.50
2023-04-09T11:10:20.878Z,16.20
2023-04-09T11:12:49.048Z,16.00
2023-04-09T11:15:19.325Z,16.10
2023-04-09T11:17:47.649Z,16.40
2023-04-09T11:20:17.348Z,16.70
2023-04-09T11:22:45.248Z,16.80
2023-04-09T11:25:19.841Z,17.00
2023-04-09T11:27:47.817Z,16.90
2023-04-09T11:30:16.250Z,16.70
2023-04-09T11:32:45.907Z,17.00
2023-04-09T11:35:15.595Z,17.00
2023-04-09T11:37:44.713Z,17.30
2023-04-09T11:40:19.969Z,17.70
2023-04-09T11:42:50.969Z,17.80
2023-04-09T11:45:19.757Z,17.80
2023-04-09T11:47:49.215Z,17.70
2023-04-09T11:50:17.573Z,17.30
2023-04-09T11:52:46.907Z,17.20
2023-04-09T11:55:25.175Z,16.90
2023-04-09T11:57:55.020Z,17.00
2023-04-09T12:00:24.700Z,16.90
2023-04-09T12:03:02.407Z,17.40
2023-04-09T12:05:31.760Z,17.30
2023-04-09T12:08:01.384Z,16.80
2023-04-09T12:10:30.372Z,16.70
2023-04-09T12:13:03.500Z,17.00
2023-04-09T12:15:33.974Z,17.00
2023-04-09T12:18:03.859Z,16.90
2023-04-09T12:20:34.909Z,16.80
2023-04-09T12:23:04.916Z,17.10
2023-04-09T12:25:33.205Z,17.40
2023-04-09T12:28:01.447Z,17.40
2023-04-09T12:30:29.176Z,17.30
2023-04-09T12:32:57.143Z,17.40
2023-04-09T12:35:26.867Z,17.50
2023-04-09T12:37:54.782Z,17.60
2023-04-09T12:40:22.984Z,17.80
2023-04-09T12:42:50.757Z,17.80
2023-04-09T12:45:20.175Z,17.90
2023-04-09T12:47:48.066Z,18.10
2023-04-09T12:50:16.633Z,18.20
2023-04-09T12:52:45.932Z,18.20
2023-04-09T12:55:14.605Z,18.00
2023-04-09T12:57:44.768Z,18.10
2023-04-09T13:00:13.918Z,18.40
2023-04-09T13:02:41.784Z,18.80
2023-04-09T13:05:10.044Z,19.00
2023-04-09T13:07:37.835Z,19.10
2023-04-09T13:10:07.755Z,19.10
2023-04-09T13:12:35.453Z,19.10
2023-04-09T13:15:03.824Z,18.60
2023-04-09T13:17:31.567Z,18.60
2023-04-09T13:19:59.316Z,18.70
2023-04-09T13:22:27.242Z,18.90
2023-04-09T13:24:54.993Z,19.00
2023-04-09T13:27:24.006Z,19.10
2023-04-09T13:29:51.946Z,19.30
2023-04-09T13:32:21.779Z,19.20
2023-04-09T13:34:49.553Z,19.00
2023-04-09T13:37:18.319Z,19.00
2023-04-09T13:39:46.694Z,19.00
2023-04-09T13:42:16.180Z,19.00
2023-04-09T13:44:45.617Z,19.10
2023-04-09T13:47:13.818Z,19.20
2023-04-09T13:49:42.018Z,19.10
2023-04-09T13:52:10.583Z,18.80
2023-04-09T13:54:38.462Z,18.30
2023-04-09T13:57:06.347Z,17.60
2023-04-09T13:59:34.037Z,17.50
2023-04-09T14:02:03.159Z,17.40
2023-04-09T14:04:31.055Z,17.30
2023-04-09T14:06:58.854Z,17.20
2023-04-09T14:09:26.632Z,17.10
2023-04-09T14:11:56.028Z,17.30
2023-04-09T14:14:23.875Z,17.30
2023-04-09T14:16:51.577Z,17.30
2023-04-09T14:19:20.771Z,17.30
2023-04-09T14:21:48.498Z,17.20
2023-04-09T14:24:16.312Z,17.30
2023-04-09T14:26:44.044Z,17.50
2023-04-09T14:29:11.745Z,17.60
2023-04-09T14:31:41.805Z,17.70
2023-04-09T14:34:09.899Z,17.70
2023-04-09T14:36:38.972Z,17.80
2023-04-09T14:39:06.681Z,17.90
2023-04-09T14:41:36.491Z,17.90
2023-04-09T14:44:04.286Z,17.70
2023-04-09T14:46:32.949Z,17.70
2023-04-09T14:49:00.913Z,17.50
2023-04-09T14:51:30.384Z,17.80
2023-04-09T14:53:59.538Z,17.90
2023-04-09T14:56:27.364Z,17.70
2023-04-09T14:58:55.200Z,17.40
2023-04-09T15:01:22.970Z,17.50
2023-04-09T15:03:51.220Z,17.70
2023-04-09T15:06:19.257Z,17.80
2023-04-09T15:08:46.970Z,18.20
2023-04-09T15:11:17.672Z,18.20
2023-04-09T15:13:45.625Z,18.30
2023-04-09T15:16:22.258Z,18.30
2023-04-09T15:18:51.991Z,17.90
2023-04-09T15:21:20.735Z,18.00
2023-04-09T15:23:48.454Z,17.90
2023-04-09T15:26:17.545Z,17.90
2023-04-09T15:28:46.085Z,18.00
2023-04-09T15:31:14.118Z,18.10
2023-04-09T15:33:43.466Z,17.90
2023-04-09T15:36:12.551Z,17.90
2023-04-09T15:38:40.418Z,17.90
2023-04-09T15:41:08.153Z,17.70
2023-04-09T15:43:37.302Z,17.30
2023-04-09T15:46:09.950Z,17.50
2023-04-09T15:48:37.863Z,17.20
2023-04-09T15:51:06.162Z,17.00
2023-04-09T15:53:33.932Z,16.90
2023-04-09T15:56:01.704Z,16.80
2023-04-09T15:58:29.753Z,16.90
2023-04-09T16:00:58.876Z,17.00
2023-04-09T16:03:26.873Z,16.90
2023-04-09T16:05:54.625Z,16.70
2023-04-09T16:08:22.307Z,16.60
2023-04-09T16:10:50.066Z,16.60
2023-04-09T16:13:17.760Z,16.50
2023-04-09T16:15:46.693Z,16.50
2023-04-09T16:18:16.030Z,16.70
2023-04-09T16:20:43.749Z,16.80
2023-04-09T16:23:11.531Z,16.60
2023-04-09T16:25:39.307Z,16.60
2023-04-09T16:28:07.040Z,16.60
2023-04-09T16:30:34.838Z,16.70
2023-04-09T16:33:02.789Z,16.50
2023-04-09T16:35:32.056Z,16.50
2023-04-09T16:37:59.917Z,16.70
2023-04-09T16:40:27.790Z,16.70
2023-04-09T16:42:55.617Z,16.80
2023-04-09T16:45:23.661Z,16.60
2023-04-09T16:47:53.994Z,16.60
2023-04-09T16:50:21.940Z,16.70
2023-04-09T16:52:51.411Z,16.40
2023-04-09T16:55:21.382Z,16.30
2023-04-09T16:57:49.304Z,16.30
2023-04-09T17:00:18.240Z,16.40
2023-04-09T17:02:46.932Z,16.50
2023-04-09T17:05:15.885Z,16.60
2023-04-09T17:07:43.590Z,16.50
2023-04-09T17:10:12.905Z,16.80
2023-04-09T17:12:40.770Z,16.90
2023-04-09T17:15:09.849Z,16.80
2023-04-09T17:17:38.276Z,16.60
2023-04-09T17:20:07.404Z,16.60
2023-04-09T17:22:35.736Z,16.60
2023-04-09T17:25:04.764Z,16.60
2023-04-09T17:27:34.024Z,16.50
2023-04-09T17:30:01.977Z,16.40
2023-04-09T17:32:29.736Z,16.30
2023-04-09T17:34:59.443Z,16.30
2023-04-09T17:37:28.806Z,16.40
2023-04-09T17:39:56.593Z,16.20
2023-04-09T17:42:24.555Z,16.10
2023-04-09T17:44:53.701Z,16.00
2023-04-09T17:47:21.502Z,15.90
2023-04-09T17:49:49.261Z,16.00
2023-04-09T17:52:17.035Z,16.00
2023-04-09T17:54:45.736Z,16.00
2023-04-09T17:57:13.594Z,16.00
2023-04-09T17:59:41.374Z,15.90
2023-04-09T18:02:10.769Z,15.90
2023-04-09T18:04:39.100Z,15.80
2023-04-09T18:07:07.832Z,15.70
2023-04-09T18:09:35.615Z,15.60
2023-04-09T18:12:03.346Z,15.60
2023-04-09T18:14:32.362Z,15.50
2023-04-09T18:17:00.980Z,15.40
2023-04-09T18:19:30.186Z,15.20
2023-04-09T18:21:57.921Z,15.00
2023-04-09T18:24:26.293Z,14.90
2023-04-09T18:26:54.022Z,14.80
2023-04-09T18:29:21.816Z,14.50
2023-04-09T18:31:49.610Z,14.30
2023-04-09T18:34:17.348Z,14.40
2023-04-09T18:36:47.254Z,14.20
2023-04-09T18:39:15.209Z,14.30
2023-04-09T18:41:44.083Z,14.30
2023-04-09T18:44:11.938Z,14.20
2023-04-09T18:46:39.855Z,14.20
2023-04-09T18:49:07.567Z,14.10
2023-04-09T18:51:35.357Z,14.10
2023-04-09T18:54:04.448Z,14.00
2023-04-09T18:56:32.275Z,13.70
2023-04-09T18:58:59.970Z,13.50
2023-04-09T19:01:27.690Z,13.40
2023-04-09T19:03:55.670Z,13.20
2023-04-09T19:06:25.455Z,13.10
2023-04-09T19:08:57.855Z,13.00
2023-04-09T19:11:26.953Z,12.90
2023-04-09T19:13:54.680Z,12.80
2023-04-09T19:16:22.542Z,12.70
2023-04-09T19:18:50.274Z,12.60
2023-04-09T19:21:18.516Z,12.70
2023-04-09T19:23:46.746Z,12.60
2023-04-09T19:26:14.722Z,12.50
2023-04-09T19:28:43.775Z,12.50
2023-04-09T19:31:14.159Z,12.40
2023-04-09T19:33:41.903Z,12.30
2023-04-09T19:36:09.601Z,12.20
2023-04-09T19:38:37.313Z,12.20
2023-04-09T19:41:05.344Z,12.20
2023-04-09T19:43:33.186Z,12.20
2023-04-09T19:46:05.825Z,12.20
2023-04-09T19:48:33.565Z,12.30
2023-04-09T19:51:01.970Z,12.20
2023-04-09T19:53:30.903Z,12.10
2023-04-09T19:55:58.615Z,12.00
2023-04-09T19:58:26.397Z,11.90
2023-04-09T20:00:54.781Z,11.90
2023-04-09T20:03:24.023Z,11.80
2023-04-09T20:05:51.847Z,11.80
2023-04-09T20:08:19.564Z,11.60
2023-04-09T20:10:47.684Z,11.60
2023-04-09T20:13:15.457Z,11.70
2023-04-09T20:15:43.597Z,11.70
2023-04-09T20:18:11.571Z,11.60
2023-04-09T20:20:40.804Z,11.50
2023-04-09T20:23:08.517Z,11.40
2023-04-09T20:25:36.646Z,11.40
2023-04-09T20:28:04.766Z,11.20
2023-04-09T20:30:32.910Z,11.10
2023-04-09T20:33:01.260Z,11.00
2023-04-09T20:35:29.072Z,10.90
2023-04-09T20:37:58.148Z,10.90
2023-04-09T20:40:26.229Z,10.90
2023-04-09T20:42:53.905Z,10.80
2023-04-09T20:45:21.602Z,10.70
2023-04-09T20:47:49.363Z,10.80
2023-04-09T20:50:17.320Z,10.80
2023-04-09T20:52:45.064Z,10.70
2023-04-09T20:55:14.146Z,10.60
2023-04-09T20:57:42.319Z,10.80
2023-04-09T21:00:11.141Z,10.60
2023-04-09T21:02:40.486Z,10.60
2023-04-09T21:05:19.693Z,10.50
2023-04-09T21:07:51.137Z,10.30
2023-04-09T21:10:20.285Z,10.10
2023-04-09T21:12:48.155Z,10.10
2023-04-09T21:15:16.063Z,10.10
2023-04-09T21:17:43.849Z,10.00
2023-04-09T21:20:12.584Z,10.10
2023-04-09T21:22:40.388Z,10.10
2023-04-09T21:25:08.779Z,10.10
2023-04-09T21:27:37.854Z,10.20
2023-04-09T21:30:06.380Z,10.20
2023-04-09T21:32:34.167Z,10.10
2023-04-09T21:35:01.917Z,10.00
2023-04-09T21:37:31.924Z,10.00
2023-04-09T21:39:59.650Z,10.00
2023-04-09T21:42:27.587Z,10.00
2023-04-09T21:44:56.627Z,10.00
2023-04-09T21:47:24.561Z,10.10
2023-04-09T21:49:52.307Z,10.10
2023-04-09T21:52:20.059Z,10.00
2023-04-09T21:54:47.773Z,9.90
2023-04-09T21:57:15.845Z,9.90
2023-04-09T21:59:43.567Z,9.90
2023-04-09T22:02:12.740Z,9.90
2023-04-09T22:04:42.432Z,9.80
2023-04-09T22:07:11.454Z,9.70
2023-04-09T22:09:39.270Z,9.70
2023-04-09T22:12:07.180Z,9.70
2023-04-09T22:14:34.857Z,9.60
2023-04-09T22:17:03.394Z,9.60
2023-04-09T22:19:33.908Z,9.30
2023-04-09T22:22:01.630Z,9.20
2023-04-09T22:24:30.238Z,9.30
2023-04-09T22:26:59.237Z,9.40
2023-04-09T22:29:27.629Z,9.30
2023-04-09T22:31:55.685Z,9.20
2023-04-09T22:34:30.025Z,9.30
2023-04-09T22:36:59.040Z,9.20
2023-04-09T22:39:27.035Z,9.20
2023-04-09T22:41:54.733Z,9.30
2023-04-09T22:44:22.495Z,9.30
2023-04-09T22:46:50.285Z,9.20
2023-04-09T22:49:18.305Z,9.30
2023-04-09T22:51:46.331Z,9.30
2023-04-09T22:54:15.544Z,9.20
2023-04-09T22:56:44.633Z,9.20
2023-04-09T22:59:12.427Z,9.20
2023-04-09T23:01:40.264Z,9.10
2023-04-09T23:04:08.153Z,9.10
2023-04-09T23:06:35.919Z,9.10
2023-04-09T23:09:03.696Z,9.10
2023-04-09T23:11:32.700Z,9.10
2023-04-09T23:14:00.397Z,9.10
2023-04-09T23:16:28.096Z,9.20
2023-04-09T23:18:56.162Z,9.10
2023-04-09T23:21:24.062Z,9.10
2023-04-09T23:23:52.027Z,9.10
2023-04-09T23:26:19.923Z,9.10
2023-04-09T23:28:48.977Z,9.10
2023-04-09T23:31:17.098Z,9.10
2023-04-09T23:33:44.804Z,8.90
2023-04-09T23:36:12.466Z,8.90
2023-04-09T23:38:43.641Z,8.90
2023-04-09T23:41:11.345Z,8.80
2023-04-09T23:43:39.054Z,8.70
2023-04-09T23:46:08.171Z,8.70
2023-04-09T23:48:35.940Z,8.70
2023-04-09T23:51:03.613Z,8.60
2023-04-09T23:53:31.291Z,8.70
2023-04-09T23:55:59.493Z,8.70
2023-04-09T23:58:27.191Z,8.70
